createdAt,value
2018-12-05T00:01:33.997Z,73.85
2018-12-05T00:06:36.578Z,73.98
2018-12-05T00:11:39.296Z,74.92
2018-12-05T00:16:41.977Z,72.90
2018-12-05T00:21:44.638Z,72.83
2018-12-05T00:26:47.848Z,73.80
2018-12-05T00:31:50.466Z,74.71
2018-12-05T00:36:53.430Z,73.71
2018-12-05T00:41:56.508Z,75.02
2018-12-05T00:46:59.819Z,74.92
2018-12-05T00:52:02.474Z,75.52
2018-12-05T00:57:05.244Z,75.36
2018-12-05T01:02:08.856Z,76.27
2018-12-05T01:07:11.631Z,77.94
2018-12-05T01:12:14.274Z,77.48
2018-12-05T01:17:17.580Z,76.48
2018-12-05T01:22:20.232Z,76.81
2018-12-05T01:27:22.960Z,77.35
2018-12-05T01:32:26.327Z,78.13
2018-12-05T01:37:29.050Z,77.30
2018-12-05T01:42:31.641Z,77.95
2018-12-05T01:47:34.249Z,78.64
2018-12-05T01:52:37.041Z,77.58
2018-12-05T01:57:39.787Z,78.18
2018-12-05T02:02:42.543Z,79.79
2018-12-05T02:07:45.233Z,79.55
2018-12-05T02:12:47.838Z,79.97
2018-12-05T02:17:50.584Z,78.87
2018-12-05T02:22:54.049Z,80.05
2018-12-05T02:27:56.857Z,79.64
2018-12-05T02:32:59.653Z,80.87
2018-12-05T02:38:02.293Z,81.06
2018-12-05T02:43:05.149Z,79.43
2018-12-05T02:48:07.837Z,80.47
2018-12-05T02:53:10.632Z,82.28
2018-12-05T02:58:13.438Z,83.74
2018-12-05T03:03:16.311Z,82.96
2018-12-05T03:08:19.111Z,81.91
2018-12-05T03:13:21.847Z,82.73
2018-12-05T03:18:24.534Z,83.18
2018-12-05T03:23:27.912Z,82.71
2018-12-05T03:28:30.522Z,82.29
2018-12-05T03:33:34.028Z,82.30
2018-12-05T03:38:37.772Z,82.49
2018-12-05T03:43:40.608Z,82.19
2018-12-05T03:48:43.396Z,82.50
2018-12-05T03:53:46.181Z,82.47
2018-12-05T03:58:48.980Z,83.92
2018-12-05T04:03:51.777Z,83.00
2018-12-05T04:08:54.479Z,84.67
2018-12-05T04:13:57.063Z,82.69
2018-12-05T04:18:59.874Z,82.56
2018-12-05T04:24:02.530Z,83.49
2018-12-05T04:29:05.214Z,82.56
2018-12-05T04:34:08.386Z,83.54
2018-12-05T04:39:10.980Z,84.40
2018-12-05T04:44:13.604Z,83.58
2018-12-05T04:49:16.981Z,83.18
2018-12-05T04:54:20.701Z,83.97
2018-12-05T04:59:23.370Z,83.98
2018-12-05T05:04:26.007Z,83.74
2018-12-05T05:09:28.620Z,84.58
2018-12-05T05:14:31.266Z,85.09
2018-12-05T05:19:33.929Z,85.72
2018-12-05T05:24:36.717Z,85.25
2018-12-05T05:29:39.285Z,85.63
2018-12-05T05:34:42.097Z,85.69
2018-12-05T05:39:45.346Z,87.34
2018-12-05T05:44:48.033Z,86.59
2018-12-05T05:49:50.565Z,86.77
2018-12-05T05:54:53.096Z,85.01
2018-12-05T05:59:55.814Z,85.61
2018-12-05T06:04:58.653Z,86.63
2018-12-05T06:10:01.207Z,86.85
2018-12-05T06:15:04.757Z,86.13
2018-12-05T06:20:07.388Z,84.94
2018-12-05T06:25:09.996Z,85.67
2018-12-05T06:30:13.161Z,85.75
2018-12-05T06:35:15.732Z,85.27
2018-12-05T06:40:18.394Z,84.85
2018-12-05T06:45:21.795Z,84.69
2018-12-05T06:50:24.325Z,85.26
2018-12-05T06:55:26.892Z,84.99
2018-12-05T07:00:29.571Z,84.77
2018-12-05T07:05:32.938Z,85.88
2018-12-05T07:10:35.668Z,86.28
2018-12-05T07:15:38.205Z,85.35
2018-12-05T07:20:40.789Z,85.21
2018-12-05T07:25:43.349Z,85.54
2018-12-05T07:30:45.988Z,85.20
2018-12-05T07:35:48.581Z,84.77
2018-12-05T07:40:51.217Z,84.95
2018-12-05T07:45:53.803Z,84.46
2018-12-05T07:50:56.395Z,84.07
2018-12-05T07:55:58.959Z,84.62
2018-12-05T08:01:01.579Z,84.34
2018-12-05T08:06:04.171Z,83.87
2018-12-05T08:11:06.803Z,83.75
2018-12-05T08:16:09.380Z,83.96
2018-12-05T08:21:12.027Z,83.55
2018-12-05T08:26:14.714Z,83.18
2018-12-05T08:31:17.261Z,83.20
2018-12-05T08:36:19.838Z,83.27
2018-12-05T08:41:22.463Z,82.27
2018-12-05T08:46:25.093Z,81.84
2018-12-05T08:51:27.672Z,80.81
2018-12-05T08:56:30.239Z,81.72
2018-12-05T09:01:32.815Z,81.02
2018-12-05T09:06:35.408Z,81.23
2018-12-05T09:11:38.004Z,80.66
2018-12-05T09:16:40.668Z,80.02
2018-12-05T09:21:43.260Z,79.44
2018-12-05T09:26:46.161Z,79.64
2018-12-05T09:31:49.166Z,79.88
2018-12-05T09:36:52.274Z,78.43
2018-12-05T09:41:55.089Z,78.26
2018-12-05T09:46:57.827Z,77.80
2018-12-05T09:52:00.439Z,77.50
2018-12-05T09:57:03.117Z,78.34
2018-12-05T10:02:05.738Z,77.96
2018-12-05T10:07:08.331Z,77.44
2018-12-05T10:12:11.826Z,77.22
2018-12-05T10:17:14.780Z,77.00
2018-12-05T10:22:17.344Z,75.88
2018-12-05T10:27:19.884Z,75.82
2018-12-05T10:32:22.451Z,74.98
2018-12-05T10:37:25.073Z,75.61
2018-12-05T10:42:27.702Z,74.58
2018-12-05T10:47:30.260Z,74.47
2018-12-05T10:52:33.059Z,73.56
2018-12-05T10:57:35.614Z,74.18
2018-12-05T11:02:44.763Z,73.47
2018-12-05T11:07:52.980Z,73.60
2018-12-05T11:13:01.166Z,73.55
2018-12-05T11:18:10.298Z,72.79
2018-12-05T11:23:18.449Z,73.04
2018-12-05T11:28:21.174Z,72.80
2018-12-05T11:33:24.525Z,72.63
2018-12-05T11:38:28.146Z,71.71
2018-12-05T11:43:31.585Z,71.62
2018-12-05T11:48:34.178Z,71.36
2018-12-05T11:53:36.743Z,70.27
2018-12-05T11:58:39.441Z,71.04
2018-12-05T12:03:42.889Z,70.34
2018-12-05T12:08:45.555Z,69.72
2018-12-05T12:13:48.169Z,69.63
2018-12-05T12:18:50.797Z,69.26
2018-12-05T12:23:53.414Z,67.78
2018-12-05T12:28:56.095Z,66.90
2018-12-05T12:33:59.310Z,65.05
2018-12-05T12:39:01.881Z,65.15
2018-12-05T12:44:04.509Z,65.49
2018-12-05T12:49:08.066Z,65.27
2018-12-05T12:54:10.712Z,65.26
2018-12-05T12:59:13.350Z,65.51
2018-12-05T13:04:16.169Z,66.24
2018-12-05T13:09:18.922Z,66.25
2018-12-05T13:14:21.619Z,65.01
2018-12-05T13:19:24.474Z,64.24
2018-12-05T13:24:27.814Z,64.94
2018-12-05T13:29:30.410Z,64.20
2018-12-05T13:34:32.969Z,64.04
2018-12-05T13:39:35.650Z,64.16
2018-12-05T13:44:38.206Z,65.39
2018-12-05T13:49:40.749Z,64.76
2018-12-05T13:54:44.159Z,64.96
2018-12-05T13:59:46.776Z,65.06
2018-12-05T14:04:49.380Z,64.52
2018-12-05T14:09:52.136Z,63.33
2018-12-05T14:14:55.957Z,60.77
2018-12-05T14:19:59.451Z,60.23
2018-12-05T14:25:02.185Z,59.37
2018-12-05T14:30:07.074Z,59.15
2018-12-05T14:35:09.657Z,59.46
2018-12-05T14:40:12.205Z,59.93
2018-12-05T14:45:14.771Z,60.56
2018-12-05T14:50:17.516Z,60.91
2018-12-05T14:55:20.137Z,61.47
2018-12-05T15:00:22.680Z,62.33
2018-12-05T15:05:26.050Z,62.14
2018-12-05T15:10:28.616Z,63.14
2018-12-05T15:15:31.169Z,65.16
2018-12-05T15:20:33.878Z,66.27
2018-12-05T15:25:37.014Z,66.33
2018-12-05T15:30:40.531Z,66.94
2018-12-05T15:35:43.352Z,66.98
2018-12-05T15:45:48.382Z,67.39
2018-12-05T15:50:50.974Z,68.18
2018-12-05T15:55:53.519Z,67.60
2018-12-05T16:00:56.138Z,67.71
2018-12-05T16:05:58.709Z,68.16
2018-12-05T16:11:01.262Z,68.04
2018-12-05T16:16:03.918Z,66.66
2018-12-05T16:21:06.588Z,67.30
2018-12-05T16:26:10.813Z,67.72
2018-12-05T16:31:13.713Z,67.63
2018-12-05T16:36:16.362Z,67.91
2018-12-05T16:41:19.076Z,68.29
2018-12-05T16:46:21.629Z,68.65
2018-12-05T16:51:24.259Z,69.30
2018-12-05T16:56:26.824Z,69.61
2018-12-05T17:01:29.418Z,70.21
2018-12-05T17:06:32.092Z,69.89
2018-12-05T17:11:34.697Z,69.60
2018-12-05T17:16:37.374Z,70.16
2018-12-05T17:21:40.059Z,70.09
2018-12-05T17:26:42.765Z,70.73
2018-12-05T17:31:46.444Z,70.90
2018-12-05T17:36:49.010Z,71.70
2018-12-05T17:41:51.545Z,72.35
2018-12-05T17:46:54.858Z,71.45
2018-12-05T17:51:57.517Z,71.68
2018-12-05T17:57:00.097Z,71.50
2018-12-05T18:02:02.641Z,70.19
2018-12-05T18:07:06.840Z,70.14
2018-12-05T18:12:09.682Z,70.27
2018-12-05T18:17:12.314Z,69.09
2018-12-05T18:22:15.697Z,70.22
2018-12-05T18:27:18.315Z,68.95
2018-12-05T18:32:20.911Z,68.59
2018-12-05T18:37:23.548Z,69.38
2018-12-05T18:42:26.153Z,69.83
2018-12-05T18:47:28.728Z,69.41
2018-12-05T18:52:31.345Z,68.86
2018-12-05T18:57:33.909Z,69.47
2018-12-05T19:02:36.503Z,69.94
2018-12-05T19:07:39.119Z,70.29
2018-12-05T19:12:41.719Z,69.91
2018-12-05T19:17:44.356Z,70.75
2018-12-05T19:22:46.923Z,71.37
2018-12-05T19:27:49.562Z,70.38
2018-12-05T19:32:52.167Z,70.21
2018-12-05T19:37:55.599Z,70.16
2018-12-05T19:42:58.210Z,71.96
2018-12-05T19:48:00.834Z,71.30
2018-12-05T19:53:03.393Z,71.37
2018-12-05T19:58:06.064Z,72.11
2018-12-05T20:03:09.419Z,72.55
2018-12-05T20:08:12.613Z,72.35
2018-12-05T20:13:15.229Z,73.03
2018-12-05T20:18:19.348Z,72.99
2018-12-05T20:23:22.639Z,72.93
2018-12-05T20:28:25.381Z,73.49
2018-12-05T20:33:28.476Z,73.18
2018-12-05T20:38:31.313Z,74.01
2018-12-05T20:43:33.983Z,73.23
2018-12-05T20:48:36.558Z,73.49
2018-12-05T20:53:40.067Z,73.64
2018-12-05T20:58:42.721Z,74.13
2018-12-05T21:03:45.766Z,74.09
2018-12-05T21:08:48.443Z,73.60
2018-12-05T21:13:51.088Z,73.42
2018-12-05T21:18:54.161Z,74.09
2018-12-05T21:23:57.321Z,74.04
2018-12-05T21:28:59.940Z,74.24
2018-12-05T21:34:02.513Z,72.98
2018-12-05T21:39:06.972Z,73.71
2018-12-05T21:44:09.606Z,73.48
2018-12-05T21:49:12.238Z,73.14
2018-12-05T21:54:14.964Z,73.21
2018-12-05T21:59:17.589Z,73.25
2018-12-05T22:04:20.233Z,73.05
2018-12-05T22:09:22.809Z,73.25
2018-12-05T22:14:25.637Z,73.32
2018-12-05T22:19:28.273Z,73.33
2018-12-05T22:24:30.890Z,74.37
2018-12-05T22:29:33.597Z,74.03
2018-12-05T22:34:36.453Z,73.97
2018-12-05T22:39:39.102Z,73.99
2018-12-05T22:44:41.738Z,73.64
2018-12-05T22:49:44.335Z,73.67
2018-12-05T22:54:46.881Z,73.64
2018-12-05T22:59:49.482Z,73.43
2018-12-05T23:04:52.026Z,73.68
2018-12-05T23:09:54.658Z,73.60
2018-12-05T23:14:57.201Z,72.95
2018-12-05T23:19:59.927Z,72.09
2018-12-05T23:25:02.933Z,72.49
2018-12-05T23:30:06.361Z,71.11
2018-12-05T23:35:09.130Z,71.67
2018-12-05T23:40:11.785Z,70.83
2018-12-05T23:45:14.600Z,68.67
2018-12-05T23:50:17.368Z,68.95
2018-12-05T23:55:19.924Z,68.35
